createdAt,value
2019-04-28T00:02:07.091Z,21.57
2019-04-28T00:04:34.065Z,21.57
2019-04-28T00:07:01.760Z,21.58
2019-04-28T00:09:28.847Z,21.57
2019-04-28T00:11:55.700Z,21.57
2019-04-28T00:14:22.847Z,21.58
2019-04-28T00:16:51.176Z,21.58
2019-04-28T00:19:20.771Z,21.58
2019-04-28T00:21:51.664Z,21.58
2019-04-28T00:24:32.161Z,21.58
2019-04-28T00:27:01.832Z,21.58
2019-04-28T00:29:38.531Z,21.58
2019-04-28T00:31:57.434Z,21.58
2019-04-28T00:34:24.229Z,21.59
2019-04-28T00:36:52.779Z,21.59
2019-04-28T00:39:22.503Z,21.58
2019-04-28T00:41:48.217Z,21.58
2019-04-28T00:44:15.584Z,21.58
2019-04-28T00:46:43.053Z,21.58
2019-04-28T00:49:11.661Z,21.58
2019-04-28T00:51:38.356Z,21.58
2019-04-28T00:54:05.239Z,21.58
2019-04-28T00:56:32.033Z,21.58
2019-04-28T00:58:58.849Z,21.58
2019-04-28T01:01:43.864Z,21.58
2019-04-28T01:04:11.798Z,21.57
2019-04-28T01:06:38.795Z,21.57
2019-04-28T01:09:05.728Z,21.57
2019-04-28T01:11:32.566Z,21.57
2019-04-28T01:13:59.342Z,21.59
2019-04-28T01:16:43.144Z,21.58
2019-04-28T01:19:20.410Z,21.55
2019-04-28T01:21:57.581Z,21.55
2019-04-28T01:24:24.363Z,21.53
2019-04-28T01:26:53.046Z,21.52
2019-04-28T01:29:19.826Z,21.53
2019-04-28T01:31:49.421Z,21.52
2019-04-28T01:34:25.318Z,21.53
2019-04-28T01:36:52.209Z,21.52
2019-04-28T01:39:20.069Z,21.52
2019-04-28T01:41:46.963Z,21.52
2019-04-28T01:44:13.728Z,21.52
2019-04-28T01:46:40.513Z,21.52
2019-04-28T01:49:07.289Z,21.51
2019-04-28T01:51:34.057Z,21.51
2019-04-28T01:54:00.834Z,21.51
2019-04-28T01:56:27.626Z,21.51
2019-04-28T01:58:54.406Z,21.56
2019-04-28T02:01:21.191Z,21.61
2019-04-28T02:03:47.962Z,21.57
2019-04-28T02:06:14.762Z,21.51
2019-04-28T02:08:41.544Z,21.50
2019-04-28T02:11:09.967Z,21.48
2019-04-28T02:13:36.888Z,21.46
2019-04-28T02:16:03.666Z,21.47
2019-04-28T02:18:30.455Z,21.47
2019-04-28T02:21:04.585Z,21.46
2019-04-28T02:23:33.008Z,21.45
2019-04-28T02:25:59.807Z,21.46
2019-04-28T02:28:26.608Z,21.45
2019-04-28T02:30:53.984Z,21.45
2019-04-28T02:33:21.280Z,21.43
2019-04-28T02:35:48.195Z,21.43
2019-04-28T02:38:16.715Z,21.43
2019-04-28T02:40:43.486Z,21.42
2019-04-28T02:43:11.436Z,21.43
2019-04-28T02:45:41.022Z,21.43
2019-04-28T02:48:11.103Z,21.42
2019-04-28T02:50:41.450Z,21.42
2019-04-28T02:53:10.992Z,21.42
2019-04-28T02:55:38.135Z,21.41
2019-04-28T02:58:04.939Z,21.42
2019-04-28T03:00:32.076Z,21.41
2019-04-28T03:03:01.044Z,21.41
2019-04-28T03:05:27.392Z,21.41
2019-04-28T03:07:54.176Z,21.40
2019-04-28T03:10:21.563Z,21.40
2019-04-28T03:12:51.326Z,21.42
2019-04-28T03:15:17.110Z,21.40
2019-04-28T03:17:44.170Z,21.41
2019-04-28T03:20:11.198Z,21.40
2019-04-28T03:22:40.146Z,21.40
2019-04-28T03:25:10.794Z,21.39
2019-04-28T03:27:40.489Z,21.40
2019-04-28T03:30:12.728Z,20.68
2019-04-28T03:32:52.421Z,21.40
2019-04-28T03:35:12.727Z,21.39
2019-04-28T03:37:41.180Z,21.39
2019-04-28T03:40:07.247Z,21.39
2019-04-28T03:42:34.030Z,21.38
2019-04-28T03:45:02.477Z,21.38
2019-04-28T03:47:31.170Z,21.38
2019-04-28T03:49:59.946Z,21.38
2019-04-28T03:52:26.262Z,21.37
2019-04-28T03:54:53.035Z,21.37
2019-04-28T03:57:21.469Z,21.38
2019-04-28T03:59:50.874Z,21.37
2019-04-28T04:02:16.840Z,21.38
2019-04-28T04:04:43.634Z,21.37
2019-04-28T04:07:11.228Z,21.37
2019-04-28T04:09:56.374Z,21.38
2019-04-28T04:12:31.057Z,21.37
2019-04-28T04:15:05.553Z,21.36
2019-04-28T04:17:41.303Z,21.36
2019-04-28T04:20:10.940Z,21.35
2019-04-28T04:22:36.730Z,21.36
2019-04-28T04:25:03.522Z,21.37
2019-04-28T04:27:31.048Z,21.35
2019-04-28T04:29:57.923Z,21.36
2019-04-28T04:32:27.197Z,21.36
2019-04-28T04:34:53.212Z,21.35
2019-04-28T04:37:20.498Z,21.34
2019-04-28T04:39:47.438Z,21.34
2019-04-28T04:42:14.238Z,21.34
2019-04-28T04:44:41.618Z,21.33
2019-04-28T04:47:10.765Z,21.33
2019-04-28T04:49:36.973Z,21.33
2019-04-28T04:52:03.743Z,21.33
2019-04-28T04:54:32.800Z,21.33
2019-04-28T04:57:00.082Z,21.32
2019-04-28T04:59:30.058Z,21.31
2019-04-28T05:02:02.105Z,21.31
2019-04-28T05:04:43.093Z,21.31
2019-04-28T05:07:10.846Z,21.30
2019-04-28T05:09:39.193Z,21.30
2019-04-28T05:12:06.323Z,21.30
2019-04-28T05:14:33.098Z,21.30
2019-04-28T05:17:00.861Z,21.30
2019-04-28T05:19:29.770Z,21.31
2019-04-28T05:21:56.440Z,21.30
2019-04-28T05:24:46.365Z,21.30
2019-04-28T05:27:11.547Z,21.30
2019-04-28T05:29:39.766Z,21.30
2019-04-28T05:32:06.780Z,21.30
2019-04-28T05:34:33.564Z,21.30
2019-04-28T05:37:00.784Z,21.30
2019-04-28T05:39:27.603Z,21.29
2019-04-28T05:41:54.407Z,21.29
2019-04-28T05:44:21.188Z,21.29
2019-04-28T05:46:50.372Z,21.29
2019-04-28T05:49:24.099Z,21.29
2019-04-28T05:51:52.504Z,21.30
2019-04-28T05:54:26.940Z,21.29
2019-04-28T05:56:59.738Z,21.29
2019-04-28T05:59:46.517Z,21.29
2019-04-28T06:02:14.936Z,21.29
2019-04-28T06:04:41.701Z,21.28
2019-04-28T06:07:10.197Z,21.28
2019-04-28T06:09:39.897Z,21.28
2019-04-28T06:12:10.197Z,21.27
2019-04-28T06:14:37.070Z,21.28
2019-04-28T06:17:04.282Z,21.28
2019-04-28T06:19:31.108Z,21.27
2019-04-28T06:21:57.876Z,21.27
2019-04-28T06:24:24.654Z,21.28
2019-04-28T06:26:51.436Z,21.26
2019-04-28T06:29:18.208Z,21.26
2019-04-28T06:31:44.982Z,21.27
2019-04-28T06:34:12.014Z,21.27
2019-04-28T06:36:38.796Z,21.26
2019-04-28T06:39:07.236Z,21.27
2019-04-28T06:41:34.006Z,21.27
2019-04-28T06:44:00.819Z,21.29
2019-04-28T06:46:27.628Z,21.36
2019-04-28T06:48:54.406Z,21.35
2019-04-28T06:51:21.170Z,21.35
2019-04-28T06:53:47.970Z,21.34
2019-04-28T06:56:14.762Z,21.32
2019-04-28T06:58:41.547Z,21.31
2019-04-28T07:01:08.322Z,21.31
2019-04-28T07:03:35.116Z,21.29
2019-04-28T07:06:01.885Z,20.76
2019-04-28T07:08:28.648Z,19.69
2019-04-28T07:10:55.445Z,19.05
2019-04-28T07:13:22.212Z,18.86
2019-04-28T07:15:48.990Z,18.72
2019-04-28T07:18:15.765Z,18.57
2019-04-28T07:20:49.914Z,18.35
2019-04-28T07:23:16.680Z,18.30
2019-04-28T07:25:43.480Z,18.26
2019-04-28T07:28:10.249Z,18.07
2019-04-28T07:30:38.670Z,18.68
2019-04-28T07:33:05.461Z,19.47
2019-04-28T07:35:32.241Z,19.96
2019-04-28T07:37:59.030Z,20.20
2019-04-28T07:40:25.800Z,20.33
2019-04-28T07:42:52.607Z,20.43
2019-04-28T07:45:19.403Z,20.50
2019-04-28T07:47:46.184Z,20.55
2019-04-28T07:50:12.950Z,20.59
2019-04-28T07:52:44.076Z,20.61
2019-04-28T07:55:10.906Z,20.66
2019-04-28T07:57:37.714Z,20.68
2019-04-28T08:00:05.273Z,20.71
2019-04-28T08:02:32.042Z,20.73
2019-04-28T08:04:58.853Z,20.75
2019-04-28T08:07:25.626Z,20.77
2019-04-28T08:09:52.458Z,20.78
2019-04-28T08:12:19.241Z,20.80
2019-04-28T08:14:46.048Z,20.81
2019-04-28T08:17:12.802Z,20.83
2019-04-28T08:19:39.592Z,20.83
2019-04-28T08:22:06.363Z,20.84
2019-04-28T08:24:33.165Z,20.86
2019-04-28T08:26:59.938Z,20.87
2019-04-28T08:29:26.733Z,20.87
2019-04-28T08:31:58.105Z,20.89
2019-04-28T08:34:24.897Z,20.89
2019-04-28T08:36:51.657Z,20.91
2019-04-28T08:39:18.432Z,20.91
2019-04-28T08:41:45.248Z,20.92
2019-04-28T08:44:12.027Z,20.92
2019-04-28T08:46:38.813Z,20.93
2019-04-28T08:49:05.599Z,20.94
2019-04-28T08:51:32.371Z,20.95
2019-04-28T08:53:59.166Z,20.96
2019-04-28T08:56:25.938Z,20.97
2019-04-28T08:58:52.733Z,20.99
2019-04-28T09:01:19.500Z,20.99
2019-04-28T09:03:46.304Z,21.00
2019-04-28T09:06:13.087Z,21.01
2019-04-28T09:08:39.867Z,21.00
2019-04-28T09:11:06.650Z,21.00
2019-04-28T09:13:33.435Z,21.01
2019-04-28T09:16:00.230Z,21.02
2019-04-28T09:18:27.084Z,21.02
2019-04-28T09:20:53.865Z,21.04
2019-04-28T09:23:20.648Z,21.02
2019-04-28T09:25:47.465Z,21.04
2019-04-28T09:28:14.290Z,21.05
2019-04-28T09:30:41.088Z,21.06
2019-04-28T09:33:07.867Z,21.08
2019-04-28T09:35:34.653Z,21.09
2019-04-28T09:38:01.466Z,21.10
2019-04-28T09:40:28.266Z,21.10
2019-04-28T09:42:59.666Z,21.12
2019-04-28T09:45:31.034Z,21.11
2019-04-28T09:47:57.837Z,21.11
2019-04-28T09:50:24.700Z,21.10
2019-04-28T09:52:51.488Z,21.10
2019-04-28T09:55:18.245Z,20.72
2019-04-28T09:57:45.083Z,19.76
2019-04-28T10:00:11.993Z,19.35
2019-04-28T10:02:38.766Z,19.17
2019-04-28T10:05:05.532Z,19.00
2019-04-28T10:07:32.323Z,18.93
2019-04-28T10:09:59.098Z,18.96
2019-04-28T10:12:27.267Z,19.00
2019-04-28T10:14:54.405Z,18.11
2019-04-28T10:17:21.168Z,18.92
2019-04-28T10:19:47.952Z,18.80
2019-04-28T10:22:14.735Z,18.77
2019-04-28T10:24:41.520Z,18.71
2019-04-28T10:27:08.661Z,19.00
2019-04-28T10:29:35.444Z,19.76
2019-04-28T10:32:02.244Z,20.13
2019-04-28T10:34:29.004Z,20.31
2019-04-28T10:36:55.804Z,20.41
2019-04-28T10:39:24.222Z,20.47
2019-04-28T10:41:50.998Z,20.53
2019-04-28T10:44:17.843Z,20.58
2019-04-28T10:46:44.646Z,19.91
2019-04-28T10:49:11.408Z,19.97
2019-04-28T10:51:38.202Z,20.67
2019-04-28T10:54:04.987Z,20.69
2019-04-28T10:56:31.773Z,20.72
2019-04-28T10:58:58.812Z,20.74
2019-04-28T11:01:25.590Z,20.76
2019-04-28T11:03:54.036Z,20.77
2019-04-28T11:06:20.797Z,20.83
2019-04-28T11:08:49.231Z,20.87
2019-04-28T11:11:17.651Z,20.89
2019-04-28T11:13:44.442Z,20.90
2019-04-28T11:16:12.845Z,20.90
2019-04-28T11:18:39.650Z,20.90
2019-04-28T11:21:06.418Z,20.94
2019-04-28T11:23:33.243Z,20.96
2019-04-28T11:26:00.024Z,20.98
2019-04-28T11:28:26.811Z,21.01
2019-04-28T11:30:53.683Z,21.04
2019-04-28T11:33:22.134Z,21.05
2019-04-28T11:35:49.588Z,21.08
2019-04-28T11:38:16.416Z,21.10
2019-04-28T11:40:43.215Z,21.10
2019-04-28T11:43:10.030Z,21.11
2019-04-28T11:45:36.885Z,21.13
2019-04-28T11:48:03.660Z,21.13
2019-04-28T11:50:30.582Z,21.11
2019-04-28T11:52:57.382Z,21.11
2019-04-28T11:55:24.170Z,21.09
2019-04-28T11:57:51.105Z,21.09
2019-04-28T12:00:35.929Z,21.09
2019-04-28T12:03:02.806Z,21.08
2019-04-28T12:05:34.689Z,21.08
2019-04-28T12:07:59.840Z,21.09
2019-04-28T12:10:28.294Z,21.09
2019-04-28T12:12:59.686Z,21.08
2019-04-28T12:15:44.357Z,21.09
2019-04-28T12:18:22.049Z,21.09
2019-04-28T12:20:48.888Z,21.09
2019-04-28T12:23:15.702Z,21.09
2019-04-28T12:25:42.512Z,21.10
2019-04-28T12:28:09.424Z,21.10
2019-04-28T12:30:36.251Z,21.10
2019-04-28T12:33:03.126Z,21.11
2019-04-28T12:35:29.941Z,21.12
2019-04-28T12:37:56.758Z,21.11
2019-04-28T12:40:23.612Z,21.12
2019-04-28T12:42:50.454Z,21.12
2019-04-28T12:45:17.244Z,21.12
2019-04-28T12:47:44.052Z,21.13
2019-04-28T12:50:12.484Z,21.14
2019-04-28T12:52:39.272Z,21.14
2019-04-28T12:55:06.163Z,21.13
2019-04-28T12:57:32.956Z,21.14
2019-04-28T13:00:04.411Z,21.15
2019-04-28T13:02:48.287Z,21.15
2019-04-28T13:05:19.040Z,21.15
2019-04-28T13:07:45.851Z,21.15
2019-04-28T13:10:12.692Z,21.12
2019-04-28T13:12:39.615Z,21.17
2019-04-28T13:15:06.511Z,21.16
2019-04-28T13:17:34.655Z,21.17
2019-04-28T13:20:01.612Z,21.17
2019-04-28T13:22:28.506Z,21.17
2019-04-28T13:24:55.304Z,21.18
2019-04-28T13:27:22.194Z,21.19
2019-04-28T13:29:49.085Z,21.18
2019-04-28T13:32:15.960Z,21.18
2019-04-28T13:34:42.838Z,21.19
2019-04-28T13:37:09.698Z,21.19
2019-04-28T13:39:41.063Z,21.19
2019-04-28T13:42:07.873Z,21.19
2019-04-28T13:44:51.654Z,21.19
2019-04-28T13:47:18.442Z,21.20
2019-04-28T13:49:52.684Z,21.20
2019-04-28T13:52:19.464Z,21.20
2019-04-28T13:54:47.916Z,21.20
2019-04-28T13:57:14.701Z,21.22
2019-04-28T13:59:41.480Z,21.22
2019-04-28T14:02:09.943Z,21.21
2019-04-28T14:04:41.378Z,21.21
2019-04-28T14:07:08.184Z,21.21
2019-04-28T14:09:35.022Z,21.23
2019-04-28T14:12:01.861Z,21.23
2019-04-28T14:14:28.727Z,21.23
2019-04-28T14:16:55.567Z,21.23
2019-04-28T14:19:22.715Z,21.24
2019-04-28T14:21:49.659Z,21.23
2019-04-28T14:24:16.550Z,21.24
2019-04-28T14:26:43.367Z,21.25
2019-04-28T14:29:10.148Z,21.25
2019-04-28T14:31:37.168Z,21.24
2019-04-28T14:34:04.037Z,21.24
2019-04-28T14:36:41.417Z,21.25
2019-04-28T14:38:59.603Z,21.25
2019-04-28T14:41:26.467Z,21.25
2019-04-28T14:43:53.352Z,21.25
2019-04-28T14:46:20.282Z,21.25
2019-04-28T14:48:47.183Z,21.26
2019-04-28T14:51:13.999Z,21.26
2019-04-28T14:53:41.796Z,21.26
2019-04-28T14:56:08.660Z,21.26
2019-04-28T14:58:35.497Z,21.26
2019-04-28T15:01:06.970Z,21.27
2019-04-28T15:03:35.456Z,21.27
2019-04-28T15:06:13.039Z,21.27
2019-04-28T15:08:59.783Z,21.27
2019-04-28T15:11:34.115Z,21.27
2019-04-28T15:14:00.937Z,21.28
2019-04-28T15:16:27.780Z,21.28
2019-04-28T15:18:54.578Z,21.28
2019-04-28T15:21:21.478Z,21.28
2019-04-28T15:23:48.282Z,21.28
2019-04-28T15:26:15.104Z,21.28
2019-04-28T15:28:41.935Z,21.29
2019-04-28T15:31:08.880Z,21.29
2019-04-28T15:33:35.674Z,21.28
2019-04-28T15:36:02.440Z,21.28
2019-04-28T15:38:29.242Z,21.29
2019-04-28T15:40:56.046Z,21.29
2019-04-28T15:43:22.859Z,21.30
2019-04-28T15:45:49.720Z,21.29
2019-04-28T15:48:16.576Z,21.28
2019-04-28T15:50:43.375Z,21.30
2019-04-28T15:53:10.181Z,21.29
2019-04-28T15:55:44.697Z,21.29
2019-04-28T15:58:31.227Z,21.29
2019-04-28T16:00:58.143Z,21.30
2019-04-28T16:03:24.980Z,21.28
2019-04-28T16:05:51.795Z,21.29
2019-04-28T16:08:18.723Z,21.28
2019-04-28T16:10:45.654Z,21.29
2019-04-28T16:13:12.656Z,21.29
2019-04-28T16:15:39.490Z,21.29
2019-04-28T16:18:06.292Z,21.29
2019-04-28T16:20:33.142Z,21.29
2019-04-28T16:22:59.955Z,21.29
2019-04-28T16:25:26.742Z,21.29
2019-04-28T16:27:53.527Z,21.28
2019-04-28T16:30:20.368Z,21.28
2019-04-28T16:32:47.276Z,20.59
2019-04-28T16:35:14.046Z,21.28
2019-04-28T16:37:40.846Z,21.28
2019-04-28T16:40:09.539Z,21.27
2019-04-28T16:42:36.282Z,21.28
2019-04-28T16:45:04.693Z,21.17
2019-04-28T16:47:31.473Z,20.96
2019-04-28T16:49:58.314Z,20.87
2019-04-28T16:52:25.372Z,20.82
2019-04-28T16:54:53.805Z,20.80
2019-04-28T16:57:22.252Z,20.77
2019-04-28T16:59:50.682Z,20.76
2019-04-28T17:02:19.222Z,20.76
2019-04-28T17:04:46.033Z,20.76
2019-04-28T17:07:12.799Z,20.73
2019-04-28T17:09:39.585Z,20.70
2019-04-28T17:12:06.429Z,20.72
2019-04-28T17:14:33.217Z,20.73
2019-04-28T17:16:59.996Z,20.71
2019-04-28T17:19:26.794Z,20.72
2019-04-28T17:21:53.579Z,20.70
2019-04-28T17:24:20.422Z,20.67
2019-04-28T17:26:47.284Z,20.64
2019-04-28T17:29:14.058Z,20.64
2019-04-28T17:31:40.879Z,20.64
2019-04-28T17:34:07.649Z,20.63
2019-04-28T17:36:34.426Z,20.59
2019-04-28T17:39:01.196Z,20.57
2019-04-28T17:41:28.066Z,20.57
2019-04-28T17:43:54.838Z,20.57
2019-04-28T17:46:21.628Z,20.56
2019-04-28T17:48:50.048Z,20.54
2019-04-28T17:51:17.314Z,20.55
2019-04-28T17:53:44.105Z,20.54
2019-04-28T17:56:10.880Z,20.53
2019-04-28T17:58:37.663Z,20.53
2019-04-28T18:01:15.028Z,20.54
2019-04-28T18:03:51.460Z,20.57
2019-04-28T18:06:22.638Z,20.58
2019-04-28T18:08:50.383Z,20.61
2019-04-28T18:11:17.168Z,20.11
2019-04-28T18:13:43.953Z,19.79
2019-04-28T18:16:27.445Z,20.08
2019-04-28T18:19:01.808Z,20.31
2019-04-28T18:21:28.572Z,20.46
2019-04-28T18:23:55.340Z,20.57
2019-04-28T18:26:22.129Z,20.65
2019-04-28T18:28:48.987Z,20.67
2019-04-28T18:31:17.402Z,20.71
2019-04-28T18:33:45.834Z,20.74
2019-04-28T18:36:20.334Z,20.75
2019-04-28T18:38:48.772Z,20.77
2019-04-28T18:41:33.422Z,20.77
2019-04-28T18:44:01.847Z,20.78
2019-04-28T18:46:29.807Z,20.79
2019-04-28T18:48:56.581Z,20.78
2019-04-28T18:51:23.374Z,20.81
2019-04-28T18:53:50.150Z,20.77
2019-04-28T18:56:16.998Z,20.75
2019-04-28T18:58:43.790Z,20.75
2019-04-28T19:01:24.509Z,20.75
2019-04-28T19:03:51.308Z,20.74
2019-04-28T19:06:18.106Z,20.75
2019-04-28T19:08:49.426Z,20.76
2019-04-28T19:11:34.863Z,20.76
2019-04-28T19:14:18.651Z,20.76
2019-04-28T19:16:47.082Z,20.75
2019-04-28T19:19:15.517Z,20.77
2019-04-28T19:21:43.954Z,20.78
2019-04-28T19:24:10.732Z,20.78
2019-04-28T19:26:37.514Z,20.76
2019-04-28T19:29:04.288Z,20.77
2019-04-28T19:31:31.079Z,20.79
2019-04-28T19:33:57.860Z,20.77
2019-04-28T19:36:24.639Z,20.79
2019-04-28T19:39:02.587Z,20.78
2019-04-28T19:41:19.900Z,20.79
2019-04-28T19:43:46.698Z,20.78
2019-04-28T19:46:15.113Z,20.80
2019-04-28T19:48:42.103Z,20.79
2019-04-28T19:51:08.849Z,20.79
2019-04-28T19:53:36.002Z,20.80
2019-04-28T19:56:04.413Z,20.78
2019-04-28T19:58:35.502Z,20.80
2019-04-28T20:01:04.271Z,20.80
2019-04-28T20:03:31.038Z,20.79
2019-04-28T20:05:57.824Z,20.81
2019-04-28T20:08:24.606Z,20.85
2019-04-28T20:10:51.392Z,20.89
2019-04-28T20:13:18.205Z,20.87
2019-04-28T20:15:44.985Z,20.90
2019-04-28T20:18:11.757Z,20.91
2019-04-28T20:20:38.610Z,20.95
2019-04-28T20:23:05.485Z,20.96
2019-04-28T20:25:32.306Z,20.95
2019-04-28T20:27:59.273Z,20.95
2019-04-28T20:30:26.129Z,20.93
2019-04-28T20:33:06.220Z,20.94
2019-04-28T20:35:23.151Z,20.94
2019-04-28T20:38:07.825Z,20.95
2019-04-28T20:40:42.192Z,20.93
2019-04-28T20:43:22.762Z,20.94
2019-04-28T20:45:49.583Z,20.95
2019-04-28T20:48:16.364Z,20.95
2019-04-28T20:50:43.156Z,20.95
2019-04-28T20:53:09.958Z,20.94
2019-04-28T20:55:36.752Z,20.96
2019-04-28T20:58:03.616Z,20.96
2019-04-28T21:00:30.392Z,20.95
2019-04-28T21:02:57.474Z,20.96
2019-04-28T21:05:24.295Z,20.95
2019-04-28T21:07:51.092Z,20.96
2019-04-28T21:10:17.882Z,20.96
2019-04-28T21:12:44.669Z,20.96
2019-04-28T21:15:11.534Z,20.97
2019-04-28T21:17:38.557Z,20.97
2019-04-28T21:20:05.337Z,20.96
2019-04-28T21:22:32.142Z,20.96
2019-04-28T21:24:59.048Z,20.97
2019-04-28T21:27:25.831Z,20.97
2019-04-28T21:29:52.624Z,20.98
2019-04-28T21:32:19.490Z,20.98
2019-04-28T21:34:46.269Z,20.98
2019-04-28T21:37:13.066Z,20.98
2019-04-28T21:39:39.870Z,20.98
2019-04-28T21:42:08.303Z,20.98
2019-04-28T21:44:39.819Z,20.99
2019-04-28T21:47:14.107Z,20.98
2019-04-28T21:49:42.752Z,20.99
2019-04-28T21:52:09.578Z,20.99
2019-04-28T21:54:36.475Z,20.99
2019-04-28T21:57:03.267Z,20.99
2019-04-28T21:59:30.134Z,21.00
2019-04-28T22:01:56.947Z,21.00
2019-04-28T22:04:23.808Z,20.99
2019-04-28T22:06:50.981Z,21.00
2019-04-28T22:09:17.836Z,21.00
2019-04-28T22:11:44.650Z,20.99
2019-04-28T22:14:11.447Z,21.00
2019-04-28T22:16:38.230Z,20.99
2019-04-28T22:19:05.040Z,21.00
2019-04-28T22:21:31.835Z,20.99
2019-04-28T22:24:16.483Z,21.00
2019-04-28T22:26:44.902Z,21.01
2019-04-28T22:29:11.715Z,21.01
2019-04-28T22:31:38.497Z,21.00
2019-04-28T22:34:05.342Z,21.01
2019-04-28T22:36:32.118Z,21.01
2019-04-28T22:38:58.944Z,21.01
2019-04-28T22:41:25.725Z,21.01
2019-04-28T22:43:52.569Z,21.01
2019-04-28T22:46:19.436Z,21.00
2019-04-28T22:48:46.356Z,21.01
2019-04-28T22:51:13.189Z,21.02
2019-04-28T22:53:40.058Z,21.02
2019-04-28T22:56:23.551Z,21.01
2019-04-28T22:58:52.083Z,21.01
2019-04-28T23:01:26.372Z,21.01
2019-04-28T23:03:54.826Z,21.01
2019-04-28T23:06:21.644Z,21.02
2019-04-28T23:08:48.446Z,21.01
2019-04-28T23:11:15.244Z,21.02
2019-04-28T23:13:42.082Z,21.02
2019-04-28T23:16:08.957Z,21.02
2019-04-28T23:18:35.765Z,21.02
2019-04-28T23:21:22.518Z,21.02
2019-04-28T23:23:55.100Z,21.02
2019-04-28T23:26:21.908Z,21.03
2019-04-28T23:28:48.724Z,21.03
2019-04-28T23:31:15.653Z,21.02
2019-04-28T23:33:42.522Z,21.01
2019-04-28T23:36:09.323Z,21.02
2019-04-28T23:38:36.154Z,21.02
2019-04-28T23:41:04.570Z,21.02
2019-04-28T23:43:31.423Z,21.02
2019-04-28T23:45:58.203Z,21.02
2019-04-28T23:48:24.987Z,21.02
2019-04-28T23:51:08.498Z,21.02
2019-04-28T23:53:53.203Z,21.03
2019-04-28T23:56:20.010Z,21.02
2019-04-28T23:58:46.797Z,21.02
